createdAt,value
2017-07-16T00:01:11.032Z,1017.63
2017-07-16T00:02:10.959Z,1017.63
2017-07-16T00:03:10.896Z,1017.65
2017-07-16T00:04:10.861Z,1017.59
2017-07-16T00:05:10.771Z,1017.61
2017-07-16T00:06:10.708Z,1017.65
2017-07-16T00:07:10.646Z,1017.61
2017-07-16T00:08:10.582Z,1017.63
2017-07-16T00:09:10.520Z,1017.63
2017-07-16T00:10:10.457Z,1017.64
2017-07-16T00:11:10.393Z,1017.63
2017-07-16T00:12:10.332Z,1017.65
2017-07-16T00:13:10.289Z,1017.68
2017-07-16T00:14:10.207Z,1017.69
2017-07-16T00:15:10.145Z,1017.68
2017-07-16T00:16:10.080Z,1017.65
2017-07-16T00:17:10.022Z,1017.64
2017-07-16T00:18:09.963Z,1017.68
2017-07-16T00:19:09.903Z,1017.66
2017-07-16T00:20:09.830Z,1017.62
2017-07-16T00:21:09.767Z,1017.68
2017-07-16T00:22:09.702Z,1017.66
2017-07-16T00:23:09.639Z,1017.64
2017-07-16T00:24:09.577Z,1017.64
2017-07-16T00:25:09.516Z,1017.59
2017-07-16T00:26:09.453Z,1017.6
2017-07-16T00:27:09.440Z,1017.61
2017-07-16T00:28:09.330Z,1017.6
2017-07-16T00:29:09.265Z,1017.62
2017-07-16T00:30:09.203Z,1017.63
2017-07-16T00:31:09.142Z,1017.65
2017-07-16T00:32:09.079Z,1017.61
2017-07-16T00:33:09.015Z,1017.62
2017-07-16T00:34:08.951Z,1017.6
2017-07-16T00:35:08.943Z,1017.63
2017-07-16T00:36:08.826Z,1017.63
2017-07-16T00:37:08.764Z,1017.65
2017-07-16T00:38:08.704Z,1017.6
2017-07-16T00:39:08.637Z,1017.65
2017-07-16T00:40:08.656Z,1017.65
2017-07-16T00:41:08.512Z,1017.68
2017-07-16T00:42:08.449Z,1017.69
2017-07-16T00:43:08.399Z,1017.72
2017-07-16T00:44:08.337Z,1017.72
2017-07-16T00:45:08.263Z,1017.71
2017-07-16T00:46:08.226Z,1017.73
2017-07-16T00:47:08.138Z,1017.72
2017-07-16T00:48:08.088Z,1017.73
2017-07-16T00:49:08.011Z,1017.74
2017-07-16T00:50:07.949Z,1017.77
2017-07-16T00:51:07.886Z,1017.73
2017-07-16T00:52:07.872Z,1017.74
2017-07-16T00:53:07.760Z,1017.75
2017-07-16T00:54:07.699Z,1017.74
2017-07-16T00:55:07.635Z,1017.74
2017-07-16T00:56:07.623Z,1017.73
2017-07-16T00:57:07.508Z,1017.72
2017-07-16T00:58:07.446Z,1017.69
2017-07-16T00:59:07.387Z,1017.7
2017-07-16T01:00:07.321Z,1017.68
2017-07-16T01:01:07.259Z,1017.67
2017-07-16T01:02:07.197Z,1017.67
2017-07-16T01:03:07.133Z,1017.68
2017-07-16T01:04:07.071Z,1017.62
2017-07-16T01:05:07.012Z,1017.66
2017-07-16T01:06:06.945Z,1017.67
2017-07-16T01:07:06.882Z,1017.65
2017-07-16T01:08:06.820Z,1017.66
2017-07-16T01:09:06.760Z,1017.68
2017-07-16T01:10:06.693Z,1017.66
2017-07-16T01:11:06.630Z,1017.68
2017-07-16T01:12:06.568Z,1017.69
2017-07-16T01:13:06.507Z,1017.71
2017-07-16T01:14:06.443Z,1017.7
2017-07-16T01:15:06.381Z,1017.72
2017-07-16T01:16:06.326Z,1017.7
2017-07-16T01:17:06.255Z,1017.71
2017-07-16T01:18:06.194Z,1017.71
2017-07-16T01:19:06.132Z,1017.72
2017-07-16T01:20:06.102Z,1017.7
2017-07-16T01:21:06.003Z,1017.71
2017-07-16T01:22:05.942Z,1017.73
2017-07-16T01:23:05.879Z,1017.7
2017-07-16T01:24:05.815Z,1017.69
2017-07-16T01:25:05.754Z,1017.7
2017-07-16T01:26:05.691Z,1017.72
2017-07-16T01:27:05.627Z,1017.72
2017-07-16T01:28:05.564Z,1017.69
2017-07-16T01:29:05.503Z,1017.73
2017-07-16T01:30:05.439Z,1017.76
2017-07-16T01:31:05.426Z,1017.7
2017-07-16T01:32:05.314Z,1017.7
2017-07-16T01:33:05.252Z,1017.7
2017-07-16T01:34:05.190Z,1017.7
2017-07-16T01:35:05.126Z,1017.68
2017-07-16T01:36:05.063Z,1017.67
2017-07-16T01:37:05.003Z,1017.66
2017-07-16T01:38:04.940Z,1017.66
2017-07-16T01:39:04.876Z,1017.65
2017-07-16T01:40:04.850Z,1017.68
2017-07-16T01:41:04.751Z,1017.66
2017-07-16T01:42:04.688Z,1017.67
2017-07-16T01:43:04.626Z,1017.65
2017-07-16T01:44:04.564Z,1017.7
2017-07-16T01:45:04.500Z,1017.71
2017-07-16T01:46:04.438Z,1017.7
2017-07-16T01:47:04.376Z,1017.68
2017-07-16T01:48:04.312Z,1017.68
2017-07-16T01:49:04.295Z,1017.7
2017-07-16T01:50:04.186Z,1017.7
2017-07-16T01:51:04.123Z,1017.67
2017-07-16T01:52:04.072Z,1017.69
2017-07-16T01:53:03.999Z,1017.69
2017-07-16T01:54:03.935Z,1017.73
2017-07-16T01:55:03.874Z,1017.72
2017-07-16T01:56:03.809Z,1017.71
2017-07-16T01:57:03.747Z,1017.72
2017-07-16T01:58:03.684Z,1017.74
2017-07-16T01:59:03.622Z,1017.71
2017-07-16T02:00:03.560Z,1017.71
2017-07-16T02:01:03.497Z,1017.69
2017-07-16T02:02:03.432Z,1017.72
2017-07-16T02:03:03.370Z,1017.7
2017-07-16T02:04:03.309Z,1017.66
2017-07-16T02:05:03.544Z,1017.74
2017-07-16T02:06:03.183Z,1017.68
2017-07-16T02:07:03.119Z,1017.69
2017-07-16T02:08:03.057Z,1017.66
2017-07-16T02:09:02.996Z,1017.65
2017-07-16T02:10:03.093Z,1017.65
2017-07-16T02:11:02.871Z,1017.63
2017-07-16T02:12:02.806Z,1017.63
2017-07-16T02:13:02.744Z,1017.61
2017-07-16T02:14:02.681Z,1017.63
2017-07-16T02:15:02.630Z,1017.65
2017-07-16T02:16:02.555Z,1017.65
2017-07-16T02:17:02.493Z,1017.68
2017-07-16T02:18:02.430Z,1017.63
2017-07-16T02:19:02.380Z,1017.65
2017-07-16T02:20:02.411Z,1017.72
2017-07-16T02:21:02.274Z,1017.73
2017-07-16T02:22:02.180Z,1017.72
2017-07-16T02:23:02.182Z,1017.72
2017-07-16T02:24:02.059Z,1017.71
2017-07-16T02:25:01.991Z,1017.73
2017-07-16T02:26:01.930Z,1017.74
2017-07-16T02:27:01.866Z,1017.72
2017-07-16T02:28:01.803Z,1017.72
2017-07-16T02:29:01.740Z,1017.67
2017-07-16T02:30:01.676Z,1017.74
2017-07-16T02:31:01.613Z,1017.72
2017-07-16T02:32:01.620Z,1017.69
2017-07-16T02:33:01.491Z,1017.69
2017-07-16T02:34:01.426Z,1017.74
2017-07-16T02:35:01.363Z,1017.76
2017-07-16T02:36:01.301Z,1017.71
2017-07-16T02:37:01.238Z,1017.77
2017-07-16T02:38:01.176Z,1017.75
2017-07-16T02:39:01.114Z,1017.72
2017-07-16T02:40:01.050Z,1017.72
2017-07-16T02:41:00.985Z,1017.71
2017-07-16T02:42:00.923Z,1017.78
2017-07-16T02:43:00.865Z,1017.76
2017-07-16T02:44:00.798Z,1017.73
2017-07-16T02:45:00.734Z,1017.77
2017-07-16T02:46:00.673Z,1017.73
2017-07-16T02:47:00.609Z,1017.71
2017-07-16T02:48:00.547Z,1017.75
2017-07-16T02:49:00.484Z,1017.71
2017-07-16T02:50:00.422Z,1017.79
2017-07-16T02:51:00.359Z,1017.71
2017-07-16T02:52:00.295Z,1017.71
2017-07-16T02:53:00.233Z,1017.7
2017-07-16T02:54:00.170Z,1017.76
2017-07-16T02:55:00.108Z,1017.72
2017-07-16T02:56:00.044Z,1017.74
2017-07-16T02:56:59.982Z,1017.71
2017-07-16T02:57:59.919Z,1017.68
2017-07-16T02:58:59.857Z,1017.7
2017-07-16T02:59:59.809Z,1017.7
2017-07-16T03:00:59.732Z,1017.7
2017-07-16T03:01:59.668Z,1017.74
2017-07-16T03:02:59.605Z,1017.75
2017-07-16T03:03:59.543Z,1017.73
2017-07-16T03:04:59.482Z,1017.74
2017-07-16T03:05:59.417Z,1017.74
2017-07-16T03:06:59.353Z,1017.79
2017-07-16T03:07:59.290Z,1017.77
2017-07-16T03:08:59.228Z,1017.79
2017-07-16T03:09:59.174Z,1017.79
2017-07-16T03:10:59.188Z,1017.78
2017-07-16T03:11:59.041Z,1017.81
2017-07-16T03:12:58.978Z,1017.8
2017-07-16T03:13:58.914Z,1017.81
2017-07-16T03:14:58.852Z,1017.81
2017-07-16T03:15:58.788Z,1017.8
2017-07-16T03:16:58.728Z,1017.8
2017-07-16T03:17:58.668Z,1017.82
2017-07-16T03:18:58.601Z,1017.8
2017-07-16T03:19:58.538Z,1017.76
2017-07-16T03:20:58.475Z,1017.77
2017-07-16T03:21:58.413Z,1017.81
2017-07-16T03:22:58.349Z,1017.79
2017-07-16T03:23:58.287Z,1017.8
2017-07-16T03:24:58.223Z,1017.81
2017-07-16T03:25:58.160Z,1017.83
2017-07-16T03:26:58.098Z,1017.79
2017-07-16T03:27:58.037Z,1017.84
2017-07-16T03:28:57.971Z,1017.8
2017-07-16T03:29:57.910Z,1017.83
2017-07-16T03:30:57.849Z,1017.83
2017-07-16T03:31:57.783Z,1017.84
2017-07-16T03:32:57.721Z,1017.82
2017-07-16T03:33:57.662Z,1017.82
2017-07-16T03:34:57.596Z,1017.79
2017-07-16T03:35:57.533Z,1017.82
2017-07-16T03:36:57.470Z,1017.82
2017-07-16T03:37:57.406Z,1017.83
2017-07-16T03:38:57.410Z,1017.8
2017-07-16T03:39:57.282Z,1017.81
2017-07-16T03:40:57.219Z,1017.8
2017-07-16T03:41:57.156Z,1017.82
2017-07-16T03:42:57.093Z,1017.85
2017-07-16T03:43:57.031Z,1017.84
2017-07-16T03:44:56.968Z,1017.85
2017-07-16T03:45:56.910Z,1017.84
2017-07-16T03:46:56.842Z,1017.86
2017-07-16T03:47:56.779Z,1017.86
2017-07-16T03:48:56.717Z,1017.84
2017-07-16T03:49:56.655Z,1017.81
2017-07-16T03:50:56.591Z,1017.79
2017-07-16T03:51:56.528Z,1017.82
2017-07-16T03:52:56.466Z,1017.78
2017-07-16T03:53:56.402Z,1017.8
2017-07-16T03:54:56.341Z,1017.8
2017-07-16T03:55:56.277Z,1017.81
2017-07-16T03:56:56.214Z,1017.77
2017-07-16T03:57:56.152Z,1017.76
2017-07-16T03:58:56.089Z,1017.76
2017-07-16T03:59:56.026Z,1017.77
2017-07-16T04:00:55.965Z,1017.79
2017-07-16T04:01:55.901Z,1017.8
2017-07-16T04:02:55.838Z,1017.81
2017-07-16T04:03:55.776Z,1017.83
2017-07-16T04:04:55.712Z,1017.86
2017-07-16T04:05:55.649Z,1017.86
2017-07-16T04:06:55.587Z,1017.88
2017-07-16T04:07:55.566Z,1017.84
2017-07-16T04:08:55.461Z,1017.88
2017-07-16T04:09:55.398Z,1017.89
2017-07-16T04:10:55.336Z,1017.89
2017-07-16T04:11:55.274Z,1017.9
2017-07-16T04:12:55.210Z,1017.89
2017-07-16T04:13:55.150Z,1017.87
2017-07-16T04:14:55.086Z,1017.88
2017-07-16T04:15:55.023Z,1017.88
2017-07-16T04:16:54.958Z,1017.85
2017-07-16T04:17:54.896Z,1017.89
2017-07-16T04:18:54.834Z,1017.85
2017-07-16T04:19:54.772Z,1017.88
2017-07-16T04:20:54.708Z,1017.82
2017-07-16T04:21:54.645Z,1017.85
2017-07-16T04:22:54.582Z,1017.86
2017-07-16T04:23:54.519Z,1017.81
2017-07-16T04:24:54.456Z,1017.83
2017-07-16T04:25:54.543Z,1017.8
2017-07-16T04:26:54.330Z,1017.85
2017-07-16T04:27:54.268Z,1017.84
2017-07-16T04:28:54.207Z,1017.83
2017-07-16T04:29:54.142Z,1017.83
2017-07-16T04:30:54.083Z,1017.86
2017-07-16T04:31:54.016Z,1017.87
2017-07-16T04:32:53.955Z,1017.89
2017-07-16T04:33:53.891Z,1017.88
2017-07-16T04:34:53.834Z,1017.9
2017-07-16T04:35:53.770Z,1017.92
2017-07-16T04:36:53.703Z,1017.91
2017-07-16T04:37:53.640Z,1017.9
2017-07-16T04:38:53.577Z,1017.92
2017-07-16T04:39:53.515Z,1017.87
2017-07-16T04:40:53.452Z,1017.91
2017-07-16T04:41:53.388Z,1017.9
2017-07-16T04:42:53.329Z,1017.9
2017-07-16T04:43:53.263Z,1017.86
2017-07-16T04:44:53.201Z,1017.88
2017-07-16T04:45:53.139Z,1017.87
2017-07-16T04:46:53.081Z,1017.89
2017-07-16T04:47:53.013Z,1017.92
2017-07-16T04:48:52.950Z,1017.91
2017-07-16T04:49:52.886Z,1017.87
2017-07-16T04:50:52.826Z,1017.91
2017-07-16T04:51:52.762Z,1017.92
2017-07-16T04:52:52.700Z,1017.93
2017-07-16T04:53:52.640Z,1017.93
2017-07-16T04:54:52.574Z,1017.94
2017-07-16T04:55:52.554Z,1017.95
2017-07-16T04:56:52.449Z,1017.93
2017-07-16T04:57:52.385Z,1017.97
2017-07-16T04:58:52.322Z,1017.95
2017-07-16T04:59:52.259Z,1018
2017-07-16T05:00:52.198Z,1018
2017-07-16T05:01:52.133Z,1018.01
2017-07-16T05:02:52.072Z,1018.06
2017-07-16T05:03:52.009Z,1018.05
2017-07-16T05:04:51.978Z,1018.06
2017-07-16T05:05:51.883Z,1018.04
2017-07-16T05:06:51.820Z,1018.04
2017-07-16T05:07:51.758Z,1018.03
2017-07-16T05:08:51.694Z,1018.05
2017-07-16T05:09:51.631Z,1018.06
2017-07-16T05:10:51.570Z,1018.08
2017-07-16T05:11:51.507Z,1018.09
2017-07-16T05:12:51.443Z,1018.11
2017-07-16T05:13:51.384Z,1018.06
2017-07-16T05:14:51.320Z,1018.08
2017-07-16T05:15:51.255Z,1018.09
2017-07-16T05:16:51.194Z,1018.11
2017-07-16T05:17:51.129Z,1018.08
2017-07-16T05:18:51.069Z,1018.06
2017-07-16T05:19:51.005Z,1018.07
2017-07-16T05:20:50.950Z,1018.06
2017-07-16T05:21:50.880Z,1018.11
2017-07-16T05:22:50.817Z,1018.11
2017-07-16T05:23:50.753Z,1018.12
2017-07-16T05:24:50.692Z,1018.13
2017-07-16T05:25:50.628Z,1018.07
2017-07-16T05:26:50.566Z,1018.09
2017-07-16T05:27:50.503Z,1018.06
2017-07-16T05:28:50.440Z,1018.04
2017-07-16T05:29:50.378Z,1018.05
2017-07-16T05:30:50.314Z,1018.03
2017-07-16T05:31:50.253Z,1018.04
2017-07-16T05:32:50.189Z,1018.04
2017-07-16T05:33:50.126Z,1018.05
2017-07-16T05:34:50.064Z,1018.11
2017-07-16T05:35:50.252Z,1018.13
2017-07-16T05:36:49.938Z,1018.1
2017-07-16T05:37:49.876Z,1018.15
2017-07-16T05:38:49.814Z,1018.18
2017-07-16T05:39:49.751Z,1018.2
2017-07-16T05:40:49.688Z,1018.19
2017-07-16T05:41:49.625Z,1018.15
2017-07-16T05:42:49.563Z,1018.16
2017-07-16T05:43:49.501Z,1018.19
2017-07-16T05:44:49.438Z,1018.2
2017-07-16T05:45:49.529Z,1018.22
2017-07-16T05:46:49.313Z,1018.23
2017-07-16T05:47:49.249Z,1018.24
2017-07-16T05:48:49.187Z,1018.25
2017-07-16T05:49:49.127Z,1018.22
2017-07-16T05:50:49.060Z,1018.24
2017-07-16T05:51:48.998Z,1018.24
2017-07-16T05:52:48.936Z,1018.23
2017-07-16T05:53:48.874Z,1018.22
2017-07-16T05:54:48.810Z,1018.21
2017-07-16T05:55:48.749Z,1018.26
2017-07-16T05:56:48.684Z,1018.23
2017-07-16T05:57:48.622Z,1018.26
2017-07-16T05:58:48.559Z,1018.24
2017-07-16T05:59:48.496Z,1018.23
2017-07-16T06:00:48.687Z,1018.24
2017-07-16T06:01:48.371Z,1018.28
2017-07-16T06:02:48.308Z,1018.24
2017-07-16T06:03:48.244Z,1018.23
2017-07-16T06:04:48.184Z,1018.26
2017-07-16T06:05:48.120Z,1018.29
2017-07-16T06:06:48.057Z,1018.29
2017-07-16T06:07:47.994Z,1018.29
2017-07-16T06:08:47.932Z,1018.29
2017-07-16T06:09:47.869Z,1018.27
2017-07-16T06:10:47.806Z,1018.29
2017-07-16T06:11:47.744Z,1018.27
2017-07-16T06:12:47.680Z,1018.27
2017-07-16T06:13:47.618Z,1018.29
2017-07-16T06:14:47.558Z,1018.32
2017-07-16T06:15:47.494Z,1018.29
2017-07-16T06:16:47.431Z,1018.3
2017-07-16T06:17:47.369Z,1018.35
2017-07-16T06:18:47.305Z,1018.33
2017-07-16T06:19:47.251Z,1018.35
2017-07-16T06:20:47.180Z,1018.36
2017-07-16T06:21:47.117Z,1018.35
2017-07-16T06:22:47.054Z,1018.4
2017-07-16T06:23:46.992Z,1018.37
2017-07-16T06:24:46.934Z,1018.4
2017-07-16T06:25:46.867Z,1018.4
2017-07-16T06:26:46.804Z,1018.4
2017-07-16T06:27:46.740Z,1018.43
2017-07-16T06:28:46.679Z,1018.39
2017-07-16T06:29:46.616Z,1018.42
2017-07-16T06:30:46.552Z,1018.42
2017-07-16T06:31:46.490Z,1018.39
2017-07-16T06:32:46.428Z,1018.38
2017-07-16T06:33:46.368Z,1018.37
2017-07-16T06:34:46.302Z,1018.36
2017-07-16T06:35:46.240Z,1018.37
2017-07-16T06:36:46.179Z,1018.37
2017-07-16T06:37:46.115Z,1018.43
2017-07-16T06:38:46.051Z,1018.4
2017-07-16T06:39:45.991Z,1018.41
2017-07-16T06:40:45.926Z,1018.38
2017-07-16T06:41:45.863Z,1018.38
2017-07-16T06:42:45.802Z,1018.41
2017-07-16T06:43:45.738Z,1018.4
2017-07-16T06:44:45.677Z,1018.41
2017-07-16T06:45:45.761Z,1018.42
2017-07-16T06:46:45.550Z,1018.42
2017-07-16T06:47:45.487Z,1018.4
2017-07-16T06:48:45.425Z,1018.45
2017-07-16T06:49:45.361Z,1018.4
2017-07-16T06:50:45.450Z,1018.41
2017-07-16T06:51:45.237Z,1018.4
2017-07-16T06:52:45.172Z,1018.42
2017-07-16T06:53:45.111Z,1018.43
2017-07-16T06:54:45.049Z,1018.46
2017-07-16T06:55:45.286Z,1018.41
2017-07-16T06:56:44.927Z,1018.4
2017-07-16T06:57:44.861Z,1018.43
2017-07-16T06:58:44.797Z,1018.43
2017-07-16T06:59:44.736Z,1018.45
2017-07-16T07:00:44.773Z,1018.43
2017-07-16T07:01:44.611Z,1018.46
2017-07-16T07:02:44.549Z,1018.47
2017-07-16T07:03:44.486Z,1018.44
2017-07-16T07:04:44.422Z,1018.44
2017-07-16T07:05:44.660Z,1018.45
2017-07-16T07:06:44.448Z,1018.45
2017-07-16T07:07:44.234Z,1018.45
2017-07-16T07:08:44.171Z,1018.46
2017-07-16T07:09:44.110Z,1018.47
2017-07-16T07:10:44.048Z,1018.47
2017-07-16T07:11:43.983Z,1018.48
2017-07-16T07:12:43.922Z,1018.5
2017-07-16T07:13:43.861Z,1018.5
2017-07-16T07:14:43.796Z,1018.5
2017-07-16T07:15:43.735Z,1018.52
2017-07-16T07:16:43.677Z,1018.47
2017-07-16T07:17:43.610Z,1018.48
2017-07-16T07:18:43.546Z,1018.52
2017-07-16T07:19:43.488Z,1018.47
2017-07-16T07:20:43.732Z,1018.45
2017-07-16T07:21:43.362Z,1018.42
2017-07-16T07:22:43.296Z,1018.48
2017-07-16T07:23:43.232Z,1018.42
2017-07-16T07:24:43.171Z,1018.41
2017-07-16T07:25:43.118Z,1018.44
2017-07-16T07:26:43.045Z,1018.41
2017-07-16T07:27:42.984Z,1018.45
2017-07-16T07:28:42.922Z,1018.42
2017-07-16T07:29:42.857Z,1018.38
2017-07-16T07:30:42.795Z,1018.43
2017-07-16T07:31:42.733Z,1018.38
2017-07-16T07:32:42.774Z,1018.45
2017-07-16T07:33:42.606Z,1018.45
2017-07-16T07:34:42.546Z,1018.45
2017-07-16T07:35:42.483Z,1018.46
2017-07-16T07:36:42.421Z,1018.45
2017-07-16T07:37:42.357Z,1018.44
2017-07-16T07:38:42.313Z,1018.47
2017-07-16T07:39:42.233Z,1018.47
2017-07-16T07:40:42.570Z,1018.45
2017-07-16T07:41:42.108Z,1018.44
2017-07-16T07:42:42.045Z,1018.41
2017-07-16T07:43:41.982Z,1018.42
2017-07-16T07:44:41.921Z,1018.45
2017-07-16T07:45:41.855Z,1018.4
2017-07-16T07:46:41.795Z,1018.39
2017-07-16T07:47:41.733Z,1018.42
2017-07-16T07:48:41.668Z,1018.41
2017-07-16T07:49:41.612Z,1018.46
2017-07-16T07:50:41.546Z,1018.42
2017-07-16T07:51:41.482Z,1018.46
2017-07-16T07:52:41.420Z,1018.4
2017-07-16T07:53:41.358Z,1018.4
2017-07-16T07:54:41.295Z,1018.38
2017-07-16T07:55:41.232Z,1018.4
2017-07-16T07:56:41.171Z,1018.42
2017-07-16T07:57:41.108Z,1018.47
2017-07-16T07:58:41.045Z,1018.48
2017-07-16T07:59:40.983Z,1018.45
2017-07-16T08:00:40.919Z,1018.46
2017-07-16T08:01:40.858Z,1018.49
2017-07-16T08:02:40.795Z,1018.44
2017-07-16T08:03:40.802Z,1018.43
2017-07-16T08:04:40.677Z,1018.42
2017-07-16T08:05:40.609Z,1018.41
2017-07-16T08:06:40.544Z,1018.42
2017-07-16T08:07:40.481Z,1018.43
2017-07-16T08:08:40.419Z,1018.41
2017-07-16T08:09:40.357Z,1018.35
2017-07-16T08:10:40.293Z,1018.38
2017-07-16T08:11:40.266Z,1018.37
2017-07-16T08:12:40.169Z,1018.39
2017-07-16T08:13:40.106Z,1018.37
2017-07-16T08:14:40.043Z,1018.38
2017-07-16T08:15:39.981Z,1018.4
2017-07-16T08:16:40.012Z,1018.42
2017-07-16T08:17:39.855Z,1018.38
2017-07-16T08:18:39.794Z,1018.34
2017-07-16T08:19:39.732Z,1018.33
2017-07-16T08:20:39.669Z,1018.37
2017-07-16T08:21:39.607Z,1018.32
2017-07-16T08:22:39.543Z,1018.35
2017-07-16T08:23:39.481Z,1018.31
2017-07-16T08:24:39.417Z,1018.26
2017-07-16T08:25:39.355Z,1018.28
2017-07-16T08:26:39.292Z,1018.25
2017-07-16T08:27:39.230Z,1018.28
2017-07-16T08:28:39.168Z,1018.29
2017-07-16T08:29:39.112Z,1018.35
2017-07-16T08:30:39.044Z,1018.3
2017-07-16T08:31:38.979Z,1018.31
2017-07-16T08:32:38.916Z,1018.3
2017-07-16T08:33:39.015Z,1018.28
2017-07-16T08:34:38.793Z,1018.25
2017-07-16T08:35:38.730Z,1018.26
2017-07-16T08:36:38.667Z,1018.24
2017-07-16T08:37:38.605Z,1018.2
2017-07-16T08:38:38.543Z,1018.22
2017-07-16T08:39:38.480Z,1018.18
2017-07-16T08:40:38.417Z,1018.23
2017-07-16T08:41:38.358Z,1018.19
2017-07-16T08:42:38.292Z,1018.2
2017-07-16T08:43:38.229Z,1018.18
2017-07-16T08:44:38.168Z,1018.15
2017-07-16T08:45:38.105Z,1018.17
2017-07-16T08:46:38.041Z,1018.19
2017-07-16T08:47:37.980Z,1018.16
2017-07-16T08:48:37.917Z,1018.18
2017-07-16T08:49:37.854Z,1018.14
2017-07-16T08:50:37.821Z,1018.15
2017-07-16T08:51:37.730Z,1018.15
2017-07-16T08:52:37.667Z,1018.15
2017-07-16T08:53:37.605Z,1018.16
2017-07-16T08:54:37.540Z,1018.15
2017-07-16T08:55:37.479Z,1018.16
2017-07-16T08:56:37.416Z,1018.14
2017-07-16T08:57:37.352Z,1018.21
2017-07-16T08:58:37.295Z,1018.19
2017-07-16T08:59:37.229Z,1018.14
2017-07-16T09:00:37.173Z,1018.2
2017-07-16T09:01:37.104Z,1018.15
2017-07-16T09:02:37.042Z,1018.15
2017-07-16T09:03:36.978Z,1018.16
2017-07-16T09:04:36.916Z,1018.07
2017-07-16T09:05:36.853Z,1018.07
2017-07-16T09:06:36.849Z,1018.1
2017-07-16T09:07:36.740Z,1018.06
2017-07-16T09:08:36.665Z,1018.13
2017-07-16T09:09:36.608Z,1018.12
2017-07-16T09:10:36.542Z,1018.11
2017-07-16T09:11:36.479Z,1018.09
2017-07-16T09:12:36.419Z,1018.06
2017-07-16T09:13:36.354Z,1018.09
2017-07-16T09:14:36.292Z,1018.09
2017-07-16T09:15:36.230Z,1018.1
2017-07-16T09:16:36.168Z,1018.08
2017-07-16T09:17:36.103Z,1018.13
2017-07-16T09:18:36.042Z,1018.08
2017-07-16T09:19:35.980Z,1018.07
2017-07-16T09:20:35.917Z,1018.06
2017-07-16T09:21:35.897Z,1018.06
2017-07-16T09:22:35.793Z,1018.04
2017-07-16T09:23:35.728Z,1018.05
2017-07-16T09:24:35.671Z,1018
2017-07-16T09:25:35.606Z,1018.02
2017-07-16T09:26:35.643Z,1018.04
2017-07-16T09:27:35.480Z,1018.01
2017-07-16T09:28:35.417Z,1018.02
2017-07-16T09:29:35.356Z,1017.99
2017-07-16T09:30:35.293Z,1017.99
2017-07-16T09:31:35.231Z,1017.99
2017-07-16T09:32:35.171Z,1017.98
2017-07-16T09:33:35.107Z,1017.97
2017-07-16T09:34:35.043Z,1017.99
2017-07-16T09:35:35.026Z,1017.98
2017-07-16T09:36:34.957Z,1017.94
2017-07-16T09:37:34.856Z,1017.94
2017-07-16T09:38:34.844Z,1017.93
2017-07-16T09:39:34.732Z,1017.93
2017-07-16T09:40:34.673Z,1017.91
2017-07-16T09:41:34.605Z,1017.89
2017-07-16T09:42:34.544Z,1017.87
2017-07-16T09:43:34.482Z,1017.82
2017-07-16T09:44:34.419Z,1017.86
2017-07-16T09:45:34.356Z,1017.84
2017-07-16T09:46:34.302Z,1017.86
2017-07-16T09:47:34.233Z,1017.8
2017-07-16T09:48:34.169Z,1017.78
2017-07-16T09:49:34.107Z,1017.76
2017-07-16T09:50:34.045Z,1017.8
2017-07-16T09:51:33.982Z,1017.77
2017-07-16T09:52:33.920Z,1017.72
2017-07-16T09:53:33.858Z,1017.77
2017-07-16T09:54:33.794Z,1017.74
2017-07-16T09:55:33.733Z,1017.74
2017-07-16T09:56:33.696Z,1017.78
2017-07-16T09:57:33.608Z,1017.82
2017-07-16T09:58:33.547Z,1017.78
2017-07-16T09:59:33.483Z,1017.76
2017-07-16T10:00:33.424Z,1017.73
2017-07-16T10:01:33.380Z,1017.77
2017-07-16T10:02:33.296Z,1017.71
2017-07-16T10:03:33.234Z,1017.7
2017-07-16T10:04:33.172Z,1017.68
2017-07-16T10:05:33.210Z,1017.69
2017-07-16T10:06:33.046Z,1017.72
2017-07-16T10:07:32.985Z,1017.69
2017-07-16T10:08:32.924Z,1017.72
2017-07-16T10:09:32.861Z,1017.74
2017-07-16T10:10:32.797Z,1017.74
2017-07-16T10:11:32.736Z,1017.71
2017-07-16T10:12:32.726Z,1017.74
2017-07-16T10:13:33.897Z,1017.75
2017-07-16T10:14:32.549Z,1017.7
2017-07-16T10:15:32.508Z,1017.71
2017-07-16T10:16:32.424Z,1017.69
2017-07-16T10:17:32.361Z,1017.67
2017-07-16T10:18:32.319Z,1017.67
2017-07-16T10:19:32.254Z,1017.64
2017-07-16T10:20:32.342Z,1017.56
2017-07-16T10:21:32.113Z,1017.65
2017-07-16T10:22:32.049Z,1017.62
2017-07-16T10:23:31.987Z,1017.61
2017-07-16T10:24:31.925Z,1017.65
2017-07-16T10:25:31.862Z,1017.6
2017-07-16T10:26:31.801Z,1017.59
2017-07-16T10:27:31.745Z,1017.57
2017-07-16T10:28:31.675Z,1017.53
2017-07-16T10:29:31.615Z,1017.57
2017-07-16T10:30:31.551Z,1017.57
2017-07-16T10:31:31.542Z,1017.56
2017-07-16T10:32:31.427Z,1017.49
2017-07-16T10:33:31.368Z,1017.55
2017-07-16T10:34:31.302Z,1017.48
2017-07-16T10:35:31.241Z,1017.41
2017-07-16T10:36:31.178Z,1017.49
2017-07-16T10:37:31.116Z,1017.46
2017-07-16T10:38:31.053Z,1017.45
2017-07-16T10:39:30.989Z,1017.41
2017-07-16T10:40:30.928Z,1017.44
2017-07-16T10:41:30.866Z,1017.37
2017-07-16T10:42:31.007Z,1017.43
2017-07-16T10:43:30.747Z,1017.44
2017-07-16T10:44:30.678Z,1017.45
2017-07-16T10:45:30.618Z,1017.42
2017-07-16T10:46:30.554Z,1017.33
2017-07-16T10:47:30.492Z,1017.41
2017-07-16T10:48:30.429Z,1017.38
2017-07-16T10:49:30.367Z,1017.36
2017-07-16T10:50:30.305Z,1017.4
2017-07-16T10:51:30.242Z,1017.45
2017-07-16T10:52:30.180Z,1017.44
2017-07-16T10:53:30.133Z,1017.45
2017-07-16T10:54:30.056Z,1017.47
2017-07-16T10:55:30.011Z,1017.44
2017-07-16T10:56:29.931Z,1017.44
2017-07-16T10:57:29.868Z,1017.43
2017-07-16T10:58:29.805Z,1017.42
2017-07-16T10:59:29.744Z,1017.42
2017-07-16T11:00:29.682Z,1017.36
2017-07-16T11:01:29.618Z,1017.33
2017-07-16T11:02:29.557Z,1017.35
2017-07-16T11:03:29.495Z,1017.34
2017-07-16T11:04:29.436Z,1017.36
2017-07-16T11:05:29.371Z,1017.37
2017-07-16T11:06:29.309Z,1017.33
2017-07-16T11:07:29.246Z,1017.34
2017-07-16T11:08:29.184Z,1017.36
2017-07-16T11:09:29.122Z,1017.32
2017-07-16T11:10:29.059Z,1017.32
2017-07-16T11:11:28.998Z,1017.31
2017-07-16T11:12:28.936Z,1017.27
2017-07-16T11:13:28.872Z,1017.27
2017-07-16T11:14:28.834Z,1017.3
2017-07-16T11:15:28.748Z,1017.28
2017-07-16T11:16:28.685Z,1017.26
2017-07-16T11:17:28.661Z,1017.27
2017-07-16T11:18:28.561Z,1017.27
2017-07-16T11:19:28.507Z,1017.24
2017-07-16T11:20:28.435Z,1017.24
2017-07-16T11:21:28.374Z,1017.22
2017-07-16T11:22:28.312Z,1017.2
2017-07-16T11:23:28.250Z,1017.21
2017-07-16T11:24:28.201Z,1017.18
2017-07-16T11:25:28.126Z,1017.19
2017-07-16T11:26:28.062Z,1017.2
2017-07-16T11:27:28.003Z,1017.19
2017-07-16T11:28:27.940Z,1017.2
2017-07-16T11:29:27.876Z,1017.22
2017-07-16T11:30:27.813Z,1017.18
2017-07-16T11:31:27.751Z,1017.2
2017-07-16T11:32:27.690Z,1017.22
2017-07-16T11:33:27.628Z,1017.18
2017-07-16T11:34:27.565Z,1017.23
2017-07-16T11:35:27.503Z,1017.18
2017-07-16T11:36:27.467Z,1017.16
2017-07-16T11:37:27.377Z,1017.14
2017-07-16T11:38:27.316Z,1017.12
2017-07-16T11:39:27.263Z,1017.1
2017-07-16T11:40:27.193Z,1017.09
2017-07-16T11:41:27.135Z,1017.12
2017-07-16T11:42:27.065Z,1017.12
2017-07-16T11:43:27.004Z,1017.15
2017-07-16T11:44:26.942Z,1017.14
2017-07-16T11:45:26.892Z,1017.14
2017-07-16T11:46:26.817Z,1017.12
2017-07-16T11:47:26.758Z,1017.12
2017-07-16T11:48:26.693Z,1017.12
2017-07-16T11:49:26.630Z,1017.07
2017-07-16T11:50:26.568Z,1017.02
2017-07-16T11:51:26.506Z,1017.07
2017-07-16T11:52:26.443Z,1017.07
2017-07-16T11:53:26.413Z,1017.01
2017-07-16T11:54:26.319Z,1017.05
2017-07-16T11:55:26.257Z,1017.06
2017-07-16T11:56:26.194Z,1017.06
2017-07-16T11:57:26.131Z,1017.03
2017-07-16T11:58:26.073Z,1017.01
2017-07-16T11:59:26.007Z,1017.01
2017-07-16T12:00:25.945Z,1017.03
2017-07-16T12:01:25.888Z,1017
2017-07-16T12:02:25.827Z,1017.04
2017-07-16T12:03:25.759Z,1016.97
2017-07-16T12:04:25.706Z,1016.95
2017-07-16T12:05:25.634Z,1016.97
2017-07-16T12:06:25.573Z,1016.99
2017-07-16T12:07:25.510Z,1016.97
2017-07-16T12:08:25.446Z,1016.91